sensor_id;sensor_type;location;lat;lon;timestamp;pressure;altitude;pressure_sealevel;temperature;humidity
64792;BME280;51226;47.504;19.074;2023-03-08T00:00:14;98919.66;;;6.10;74.51
64792;BME280;51226;47.504;19.074;2023-03-08T00:03:39;98917.31;;;6.18;74.42
64792;BME280;51226;47.504;19.074;2023-03-08T00:06:41;98914.19;;;6.01;75.24
64792;BME280;51226;47.504;19.074;2023-03-08T00:09:44;98912.34;;;5.97;75.69
64792;BME280;51226;47.504;19.074;2023-03-08T00:12:47;98915.56;;;5.91;76.55
64792;BME280;51226;47.504;19.074;2023-03-08T00:15:50;98916.13;;;5.82;77.75
64792;BME280;51226;47.504;19.074;2023-03-08T00:18:54;98905.53;;;5.74;78.25
64792;BME280;51226;47.504;19.074;2023-03-08T00:21:57;98906.97;;;5.66;78.83
64792;BME280;51226;47.504;19.074;2023-03-08T00:25:00;98906.97;;;5.66;79.29
64792;BME280;51226;47.504;19.074;2023-03-08T00:28:03;98909.53;;;5.65;79.34
64792;BME280;51226;47.504;19.074;2023-03-08T00:31:11;98918.22;;;5.67;79.46
64792;BME280;51226;47.504;19.074;2023-03-08T00:34:14;98916.00;;;5.52;80.11
64792;BME280;51226;47.504;19.074;2023-03-08T00:37:17;98912.66;;;5.56;80.65
64792;BME280;51226;47.504;19.074;2023-03-08T00:40:21;98917.84;;;5.56;80.56
64792;BME280;51226;47.504;19.074;2023-03-08T00:43:23;98922.03;;;5.52;81.07
64792;BME280;51226;47.504;19.074;2023-03-08T00:46:27;98917.97;;;5.86;80.83
64792;BME280;51226;47.504;19.074;2023-03-08T00:49:29;98910.63;;;5.71;81.51
64792;BME280;51226;47.504;19.074;2023-03-08T00:52:33;98897.22;;;5.57;82.09
64792;BME280;51226;47.504;19.074;2023-03-08T00:55:35;98898.19;;;5.61;82.45
64792;BME280;51226;47.504;19.074;2023-03-08T00:58:40;98901.50;;;5.57;82.60
64792;BME280;51226;47.504;19.074;2023-03-08T01:01:43;98909.38;;;5.60;82.34
64792;BME280;51226;47.504;19.074;2023-03-08T01:04:46;98904.25;;;5.62;82.02
64792;BME280;51226;47.504;19.074;2023-03-08T01:07:49;98914.47;;;5.84;82.08
64792;BME280;51226;47.504;19.074;2023-03-08T01:10:53;98905.91;;;5.85;82.02
64792;BME280;51226;47.504;19.074;2023-03-08T01:13:58;98915.81;;;5.73;82.78
64792;BME280;51226;47.504;19.074;2023-03-08T01:17:01;98915.25;;;5.56;83.22
64792;BME280;51226;47.504;19.074;2023-03-08T01:20:04;98916.91;;;5.54;82.90
64792;BME280;51226;47.504;19.074;2023-03-08T01:23:08;98921.22;;;5.53;82.85
64792;BME280;51226;47.504;19.074;2023-03-08T01:26:16;98930.06;;;5.60;83.41
64792;BME280;51226;47.504;19.074;2023-03-08T01:29:19;98935.13;;;5.57;83.23
64792;BME280;51226;47.504;19.074;2023-03-08T01:32:22;98923.00;;;5.56;82.99
64792;BME280;51226;47.504;19.074;2023-03-08T01:35:26;98921.31;;;5.56;82.71
64792;BME280;51226;47.504;19.074;2023-03-08T01:38:28;98926.56;;;5.60;82.21
64792;BME280;51226;47.504;19.074;2023-03-08T01:41:33;98934.56;;;5.66;82.28
64792;BME280;51226;47.504;19.074;2023-03-08T01:44:49;98950.00;;;5.64;82.34
64792;BME280;51226;47.504;19.074;2023-03-08T01:47:52;98944.94;;;5.67;82.39
64792;BME280;51226;47.504;19.074;2023-03-08T01:50:57;98944.94;;;5.67;82.38
64792;BME280;51226;47.504;19.074;2023-03-08T01:54:05;98946.72;;;5.68;82.12
64792;BME280;51226;47.504;19.074;2023-03-08T01:57:26;98947.59;;;5.69;82.08
64792;BME280;51226;47.504;19.074;2023-03-08T02:00:30;98943.28;;;5.69;81.92
64792;BME280;51226;47.504;19.074;2023-03-08T02:03:33;98956.22;;;5.69;82.08
64792;BME280;51226;47.504;19.074;2023-03-08T02:06:37;98954.41;;;5.92;81.99
64792;BME280;51226;47.504;19.074;2023-03-08T02:09:40;98955.22;;;5.90;81.80
64792;BME280;51226;47.504;19.074;2023-03-08T02:12:44;98958.34;;;5.81;81.83
64792;BME280;51226;47.504;19.074;2023-03-08T02:15:48;98965.13;;;5.78;81.44
64792;BME280;51226;47.504;19.074;2023-03-08T02:19:04;98970.25;;;5.76;80.90
64792;BME280;51226;47.504;19.074;2023-03-08T02:22:11;98973.50;;;5.70;80.65
64792;BME280;51226;47.504;19.074;2023-03-08T02:25:17;98968.97;;;5.63;80.62
64792;BME280;51226;47.504;19.074;2023-03-08T02:28:22;98973.13;;;5.60;80.24
64792;BME280;51226;47.504;19.074;2023-03-08T02:31:27;98976.44;;;5.55;80.33
64792;BME280;51226;47.504;19.074;2023-03-08T02:34:29;98965.88;;;5.49;80.11
64792;BME280;51226;47.504;19.074;2023-03-08T02:37:33;98968.31;;;5.45;80.23
64792;BME280;51226;47.504;19.074;2023-03-08T02:40:37;98982.06;;;5.44;80.04
64792;BME280;51226;47.504;19.074;2023-03-08T02:43:40;98989.66;;;5.39;80.29
64792;BME280;51226;47.504;19.074;2023-03-08T02:46:43;98997.22;;;5.34;80.53
64792;BME280;51226;47.504;19.074;2023-03-08T02:49:47;98998.94;;;5.34;80.82
64792;BME280;51226;47.504;19.074;2023-03-08T02:52:49;99002.41;;;5.34;80.67
64792;BME280;51226;47.504;19.074;2023-03-08T02:55:52;99009.41;;;5.37;80.31
64792;BME280;51226;47.504;19.074;2023-03-08T02:58:55;99017.09;;;5.35;80.23
64792;BME280;51226;47.504;19.074;2023-03-08T03:01:58;99014.53;;;5.35;80.27
64792;BME280;51226;47.504;19.074;2023-03-08T03:05:03;99023.03;;;5.33;80.46
64792;BME280;51226;47.504;19.074;2023-03-08T03:08:08;99018.69;;;5.32;80.82
64792;BME280;51226;47.504;19.074;2023-03-08T03:11:16;99026.56;;;5.35;80.73
64792;BME280;51226;47.504;19.074;2023-03-08T03:14:21;99028.38;;;5.37;80.58
64792;BME280;51226;47.504;19.074;2023-03-08T03:17:24;99031.81;;;5.36;80.93
64792;BME280;51226;47.504;19.074;2023-03-08T03:20:27;99036.12;;;5.37;80.98
64792;BME280;51226;47.504;19.074;2023-03-08T03:23:29;99043.94;;;5.39;80.89
64792;BME280;51226;47.504;19.074;2023-03-08T03:26:33;99050.03;;;5.41;80.63
64792;BME280;51226;47.504;19.074;2023-03-08T03:29:38;99049.28;;;5.44;80.53
64792;BME280;51226;47.504;19.074;2023-03-08T03:32:42;99052.06;;;5.48;80.42
64792;BME280;51226;47.504;19.074;2023-03-08T03:35:45;99073.72;;;5.52;80.35
64792;BME280;51226;47.504;19.074;2023-03-08T03:38:49;99073.47;;;5.68;79.58
64792;BME280;51226;47.504;19.074;2023-03-08T03:41:52;99074.50;;;5.73;79.79
64792;BME280;51226;47.504;19.074;2023-03-08T03:44:56;99077.78;;;5.69;80.06
64792;BME280;51226;47.504;19.074;2023-03-08T03:47:58;99073.06;;;5.57;80.75
64792;BME280;51226;47.504;19.074;2023-03-08T03:51:06;99061.78;;;5.55;81.09
64792;BME280;51226;47.504;19.074;2023-03-08T03:54:09;99055.69;;;5.53;81.04
64792;BME280;51226;47.504;19.074;2023-03-08T03:57:14;99058.31;;;5.55;81.04
64792;BME280;51226;47.504;19.074;2023-03-08T04:00:17;99044.44;;;5.53;81.06
64792;BME280;51226;47.504;19.074;2023-03-08T04:03:21;99029.75;;;5.52;81.05
64792;BME280;51226;47.504;19.074;2023-03-08T04:06:28;99027.13;;;5.50;81.03
64792;BME280;51226;47.504;19.074;2023-03-08T04:09:31;99027.06;;;5.49;80.69
64792;BME280;51226;47.504;19.074;2023-03-08T04:12:36;99018.56;;;5.51;80.37
64792;BME280;51226;47.504;19.074;2023-03-08T04:15:40;99030.53;;;5.49;80.25
64792;BME280;51226;47.504;19.074;2023-03-08T04:18:44;99035.63;;;5.48;80.34
64792;BME280;51226;47.504;19.074;2023-03-08T04:21:48;99040.81;;;5.48;79.95
64792;BME280;51226;47.504;19.074;2023-03-08T04:24:51;99058.75;;;5.67;79.07
64792;BME280;51226;47.504;19.074;2023-03-08T04:27:55;99068.56;;;5.52;79.82
64792;BME280;51226;47.504;19.074;2023-03-08T04:30:57;99074.41;;;5.48;79.87
64792;BME280;51226;47.504;19.074;2023-03-08T04:34:02;99083.94;;;5.49;79.86
64792;BME280;51226;47.504;19.074;2023-03-08T04:37:05;99083.84;;;5.46;79.77
64792;BME280;51226;47.504;19.074;2023-03-08T04:40:10;99082.97;;;5.45;79.77
64792;BME280;51226;47.504;19.074;2023-03-08T04:43:13;99095.81;;;5.44;80.27
64792;BME280;51226;47.504;19.074;2023-03-08T04:46:19;99098.34;;;5.42;80.49
64792;BME280;51226;47.504;19.074;2023-03-08T04:49:23;99098.41;;;5.44;80.52
64792;BME280;51226;47.504;19.074;2023-03-08T04:52:27;99096.81;;;5.47;80.71
64792;BME280;51226;47.504;19.074;2023-03-08T04:55:30;99099.91;;;5.61;80.23
64792;BME280;51226;47.504;19.074;2023-03-08T04:58:35;99101.78;;;5.65;80.01
64792;BME280;51226;47.504;19.074;2023-03-08T05:01:38;99091.34;;;5.62;80.17
64792;BME280;51226;47.504;19.074;2023-03-08T05:04:42;99094.28;;;5.73;79.95
64792;BME280;51226;47.504;19.074;2023-03-08T05:07:45;99094.53;;;5.79;79.93
64792;BME280;51226;47.504;19.074;2023-03-08T05:10:53;99090.84;;;5.72;80.13
64792;BME280;51226;47.504;19.074;2023-03-08T05:13:58;99084.63;;;5.67;80.53
64792;BME280;51226;47.504;19.074;2023-03-08T05:17:02;99083.69;;;5.65;80.59
64792;BME280;51226;47.504;19.074;2023-03-08T05:20:08;99089.25;;;5.76;79.84
64792;BME280;51226;47.504;19.074;2023-03-08T05:23:12;99092.88;;;5.81;77.56
64792;BME280;51226;47.504;19.074;2023-03-08T05:26:16;99084.28;;;5.82;76.64
64792;BME280;51226;47.504;19.074;2023-03-08T05:29:20;99093.16;;;5.89;75.39
64792;BME280;51226;47.504;19.074;2023-03-08T05:32:24;99085.28;;;5.86;74.19
64792;BME280;51226;47.504;19.074;2023-03-08T05:35:28;99094.87;;;5.88;73.21
64792;BME280;51226;47.504;19.074;2023-03-08T05:38:31;99111.28;;;5.89;72.06
64792;BME280;51226;47.504;19.074;2023-03-08T05:41:35;99116.97;;;6.03;67.53
64792;BME280;51226;47.504;19.074;2023-03-08T05:44:39;99124.59;;;6.00;69.12
64792;BME280;51226;47.504;19.074;2023-03-08T05:47:42;99133.44;;;6.05;68.96
64792;BME280;51226;47.504;19.074;2023-03-08T05:50:45;99137.84;;;6.07;69.35
64792;BME280;51226;47.504;19.074;2023-03-08T05:53:48;99134.91;;;6.22;67.43
64792;BME280;51226;47.504;19.074;2023-03-08T05:56:51;99141.50;;;6.38;62.18
64792;BME280;51226;47.504;19.074;2023-03-08T05:59:55;99143.25;;;6.39;64.24
64792;BME280;51226;47.504;19.074;2023-03-08T06:02:59;99145.44;;;6.53;62.42
64792;BME280;51226;47.504;19.074;2023-03-08T06:06:06;99160.44;;;6.63;62.28
64792;BME280;51226;47.504;19.074;2023-03-08T06:09:09;99164.28;;;6.74;59.39
64792;BME280;51226;47.504;19.074;2023-03-08T06:12:13;99158.53;;;6.83;59.86
64792;BME280;51226;47.504;19.074;2023-03-08T06:15:18;99157.97;;;6.92;60.34
64792;BME280;51226;47.504;19.074;2023-03-08T06:18:22;99165.31;;;7.05;57.77
64792;BME280;51226;47.504;19.074;2023-03-08T06:21:25;99161.94;;;7.08;58.90
64792;BME280;51226;47.504;19.074;2023-03-08T06:24:31;99167.38;;;7.15;58.17
64792;BME280;51226;47.504;19.074;2023-03-08T06:27:34;99182.53;;;7.30;56.07
64792;BME280;51226;47.504;19.074;2023-03-08T06:30:38;99179.94;;;7.30;56.53
64792;BME280;51226;47.504;19.074;2023-03-08T06:33:41;99185.03;;;7.27;57.96
64792;BME280;51226;47.504;19.074;2023-03-08T06:36:46;99191.56;;;7.43;56.05
64792;BME280;51226;47.504;19.074;2023-03-08T06:39:48;99189.34;;;7.55;55.32
64792;BME280;51226;47.504;19.074;2023-03-08T06:42:52;99196.03;;;7.76;55.59
64792;BME280;51226;47.504;19.074;2023-03-08T06:45:56;99194.31;;;8.07;53.32
64792;BME280;51226;47.504;19.074;2023-03-08T06:48:59;99203.28;;;8.18;52.70
64792;BME280;51226;47.504;19.074;2023-03-08T06:52:03;99213.41;;;8.39;51.73
64792;BME280;51226;47.504;19.074;2023-03-08T06:55:07;99212.72;;;8.45;51.63
64792;BME280;51226;47.504;19.074;2023-03-08T06:58:10;99212.53;;;8.39;52.21
64792;BME280;51226;47.504;19.074;2023-03-08T07:01:14;99207.06;;;8.29;52.21
64792;BME280;51226;47.504;19.074;2023-03-08T07:04:17;99204.81;;;8.42;50.10
64792;BME280;51226;47.504;19.074;2023-03-08T07:07:20;99223.75;;;8.38;50.12
64792;BME280;51226;47.504;19.074;2023-03-08T07:10:23;99221.25;;;8.41;49.33
64792;BME280;51226;47.504;19.074;2023-03-08T07:13:26;99230.50;;;8.31;51.32
64792;BME280;51226;47.504;19.074;2023-03-08T07:16:30;99232.13;;;8.27;50.98
64792;BME280;51226;47.504;19.074;2023-03-08T07:19:33;99238.34;;;8.32;50.86
64792;BME280;51226;47.504;19.074;2023-03-08T07:22:36;99240.72;;;8.55;49.02
64792;BME280;51226;47.504;19.074;2023-03-08T07:25:39;99245.44;;;8.70;49.63
64792;BME280;51226;47.504;19.074;2023-03-08T07:28:42;99247.50;;;8.82;48.70
64792;BME280;51226;47.504;19.074;2023-03-08T07:31:45;99250.34;;;8.91;48.03
64792;BME280;51226;47.504;19.074;2023-03-08T07:34:48;99247.78;;;8.93;49.62
64792;BME280;51226;47.504;19.074;2023-03-08T07:37:51;99262.34;;;8.86;49.94
64792;BME280;51226;47.504;19.074;2023-03-08T07:40:54;99255.53;;;8.91;48.84
64792;BME280;51226;47.504;19.074;2023-03-08T07:43:58;99256.72;;;9.02;47.94
64792;BME280;51226;47.504;19.074;2023-03-08T07:47:01;99265.25;;;8.98;49.78
64792;BME280;51226;47.504;19.074;2023-03-08T07:50:04;99257.84;;;9.12;48.28
64792;BME280;51226;47.504;19.074;2023-03-08T07:53:07;99269.63;;;9.33;47.55
64792;BME280;51226;47.504;19.074;2023-03-08T07:56:10;99269.19;;;9.51;45.95
64792;BME280;51226;47.504;19.074;2023-03-08T07:59:13;99271.09;;;9.58;46.34
64792;BME280;51226;47.504;19.074;2023-03-08T08:02:16;99274.41;;;9.51;48.06
64792;BME280;51226;47.504;19.074;2023-03-08T08:05:19;99278.69;;;9.50;47.59
64792;BME280;51226;47.504;19.074;2023-03-08T08:08:25;99284.34;;;9.69;47.16
64792;BME280;51226;47.504;19.074;2023-03-08T08:11:28;99289.91;;;9.82;45.40
64792;BME280;51226;47.504;19.074;2023-03-08T08:14:31;99289.44;;;9.62;46.45
64792;BME280;51226;47.504;19.074;2023-03-08T08:17:34;99284.81;;;9.51;45.20
64792;BME280;51226;47.504;19.074;2023-03-08T08:20:37;99290.28;;;9.63;43.29
64792;BME280;51226;47.504;19.074;2023-03-08T08:23:41;99285.50;;;9.45;45.68
64792;BME280;51226;47.504;19.074;2023-03-08T08:26:44;99286.53;;;9.52;45.08
64792;BME280;51226;47.504;19.074;2023-03-08T08:29:47;99285.78;;;9.92;42.62
64792;BME280;51226;47.504;19.074;2023-03-08T08:32:52;99290.84;;;9.86;44.15
64792;BME280;51226;47.504;19.074;2023-03-08T08:35:55;99280.47;;;9.88;43.79
64792;BME280;51226;47.504;19.074;2023-03-08T08:38:58;99292.84;;;9.98;43.43
64792;BME280;51226;47.504;19.074;2023-03-08T08:42:01;99291.38;;;10.09;42.40
64792;BME280;51226;47.504;19.074;2023-03-08T08:45:04;99289.28;;;10.32;41.44
64792;BME280;51226;47.504;19.074;2023-03-08T08:48:07;99288.53;;;10.38;41.37
64792;BME280;51226;47.504;19.074;2023-03-08T08:51:11;99294.56;;;10.37;41.41
64792;BME280;51226;47.504;19.074;2023-03-08T08:54:15;99291.59;;;10.20;41.87
64792;BME280;51226;47.504;19.074;2023-03-08T08:57:17;99293.66;;;10.35;40.40
64792;BME280;51226;47.504;19.074;2023-03-08T09:00:21;99278.91;;;10.35;41.06
64792;BME280;51226;47.504;19.074;2023-03-08T09:03:24;99276.47;;;10.43;42.88
64792;BME280;51226;47.504;19.074;2023-03-08T09:06:27;99269.78;;;10.56;41.39
64792;BME280;51226;47.504;19.074;2023-03-08T09:09:30;99275.41;;;10.79;39.95
64792;BME280;51226;47.504;19.074;2023-03-08T09:12:33;99278.59;;;11.08;40.24
64792;BME280;51226;47.504;19.074;2023-03-08T09:15:37;99279.88;;;11.34;39.29
64792;BME280;51226;47.504;19.074;2023-03-08T09:18:40;99266.28;;;11.53;39.50
64792;BME280;51226;47.504;19.074;2023-03-08T09:21:42;99267.38;;;11.67;38.97
64792;BME280;51226;47.504;19.074;2023-03-08T09:24:48;99268.75;;;12.00;37.35
64792;BME280;51226;47.504;19.074;2023-03-08T09:27:51;99266.34;;;12.16;36.75
64792;BME280;51226;47.504;19.074;2023-03-08T09:30:54;99260.50;;;12.35;35.71
64792;BME280;51226;47.504;19.074;2023-03-08T09:33:57;99250.75;;;12.22;36.48
64792;BME280;51226;47.504;19.074;2023-03-08T09:37:01;99253.97;;;12.71;35.14
64792;BME280;51226;47.504;19.074;2023-03-08T09:40:05;99243.12;;;13.22;36.38
64792;BME280;51226;47.504;19.074;2023-03-08T09:43:19;99243.91;;;14.43;32.37
64792;BME280;51226;47.504;19.074;2023-03-08T09:46:32;99246.72;;;15.11;31.72
64792;BME280;51226;47.504;19.074;2023-03-08T09:49:37;99250.25;;;15.46;30.57
64792;BME280;51226;47.504;19.074;2023-03-08T09:52:59;99248.47;;;14.94;30.23
64792;BME280;51226;47.504;19.074;2023-03-08T09:59:15;99246.75;;;15.17;31.54
64792;BME280;51226;47.504;19.074;2023-03-08T10:09:03;99225.47;;;16.48;28.90
64792;BME280;51226;47.504;19.074;2023-03-08T10:12:27;99225.19;;;17.02;30.74
64792;BME280;51226;47.504;19.074;2023-03-08T10:15:39;99229.50;;;17.13;31.33
64792;BME280;51226;47.504;19.074;2023-03-08T10:22:02;99232.75;;;15.37;35.97
64792;BME280;51226;47.504;19.074;2023-03-08T10:28:25;99229.91;;;14.46;35.90
64792;BME280;51226;47.504;19.074;2023-03-08T10:31:30;99227.19;;;14.24;37.13
64792;BME280;51226;47.504;19.074;2023-03-08T10:34:35;99237.69;;;14.24;36.40
64792;BME280;51226;47.504;19.074;2023-03-08T10:37:39;99227.19;;;14.24;36.67
64792;BME280;51226;47.504;19.074;2023-03-08T10:40:42;99234.31;;;14.47;36.07
64792;BME280;51226;47.504;19.074;2023-03-08T10:43:48;99237.94;;;14.88;35.84
64792;BME280;51226;47.504;19.074;2023-03-08T10:46:51;99230.97;;;15.31;34.94
64792;BME280;51226;47.504;19.074;2023-03-08T10:53:16;99234.41;;;16.04;33.32
64792;BME280;51226;47.504;19.074;2023-03-08T10:56:23;99232.69;;;15.91;33.39
64792;BME280;51226;47.504;19.074;2023-03-08T10:59:32;99230.13;;;15.35;32.66
64792;BME280;51226;47.504;19.074;2023-03-08T11:02:36;99225.63;;;14.59;33.91
64792;BME280;51226;47.504;19.074;2023-03-08T11:05:50;99221.97;;;14.26;35.61
64792;BME280;51226;47.504;19.074;2023-03-08T11:08:57;99213.91;;;13.87;35.14
64792;BME280;51226;47.504;19.074;2023-03-08T11:12:01;99211.94;;;13.51;36.31
64792;BME280;51226;47.504;19.074;2023-03-08T11:15:18;99207.50;;;13.39;35.79
64792;BME280;51226;47.504;19.074;2023-03-08T11:32:40;99187.69;;;13.84;35.05
64792;BME280;51226;47.504;19.074;2023-03-08T11:39:25;99193.63;;;13.54;34.21
64792;BME280;51226;47.504;19.074;2023-03-08T11:43:04;99186.28;;;13.07;35.80
64792;BME280;51226;47.504;19.074;2023-03-08T11:46:12;99181.56;;;12.70;36.53
64792;BME280;51226;47.504;19.074;2023-03-08T11:59:07;99187.47;;;11.82;37.45
64792;BME280;51226;47.504;19.074;2023-03-08T12:02:22;99181.00;;;11.55;37.81
64792;BME280;51226;47.504;19.074;2023-03-08T12:05:31;99168.69;;;11.45;37.39
64792;BME280;51226;47.504;19.074;2023-03-08T12:08:44;99169.63;;;11.50;37.54
64792;BME280;51226;47.504;19.074;2023-03-08T12:18:11;99157.19;;;11.32;37.41
64792;BME280;51226;47.504;19.074;2023-03-08T12:24:45;99145.53;;;11.70;36.60
64792;BME280;51226;47.504;19.074;2023-03-08T12:28:05;99153.22;;;11.59;36.89
64792;BME280;51226;47.504;19.074;2023-03-08T12:31:30;99153.69;;;11.31;37.95
64792;BME280;51226;47.504;19.074;2023-03-08T12:34:37;99158.75;;;11.22;38.48
64792;BME280;51226;47.504;19.074;2023-03-08T12:37:40;99145.88;;;11.31;38.30
64792;BME280;51226;47.504;19.074;2023-03-08T12:40:48;99137.22;;;11.36;38.53
64792;BME280;51226;47.504;19.074;2023-03-08T12:44:25;99129.28;;;11.28;39.61
64792;BME280;51226;47.504;19.074;2023-03-08T12:47:27;99126.88;;;11.43;39.04
64792;BME280;51226;47.504;19.074;2023-03-08T12:50:39;99108.59;;;11.42;39.47
64792;BME280;51226;47.504;19.074;2023-03-08T12:56:53;99096.59;;;11.55;38.98
64792;BME280;51226;47.504;19.074;2023-03-08T13:00:05;99094.00;;;11.59;40.17
64792;BME280;51226;47.504;19.074;2023-03-08T13:19:30;99032.75;;;13.13;35.44
64792;BME280;51226;47.504;19.074;2023-03-08T13:22:39;99013.69;;;13.38;34.83
64792;BME280;51226;47.504;19.074;2023-03-08T13:29:36;99000.75;;;13.82;32.02
64792;BME280;51226;47.504;19.074;2023-03-08T13:32:40;98999.91;;;14.14;34.96
64792;BME280;51226;47.504;19.074;2023-03-08T13:36:36;98991.19;;;14.51;31.90
64792;BME280;51226;47.504;19.074;2023-03-08T13:39:21;98979.81;;;14.36;31.70
64792;BME280;51226;47.504;19.074;2023-03-08T13:42:27;98976.34;;;14.23;32.20
64792;BME280;51226;47.504;19.074;2023-03-08T13:45:30;98964.94;;;14.01;33.65
64792;BME280;51226;47.504;19.074;2023-03-08T13:48:35;98959.69;;;13.86;33.63
64792;BME280;51226;47.504;19.074;2023-03-08T13:51:38;98946.56;;;13.58;33.96
64792;BME280;51226;47.504;19.074;2023-03-08T13:54:46;98953.41;;;13.27;34.23
64792;BME280;51226;47.504;19.074;2023-03-08T13:57:51;98954.19;;;13.09;35.11
64792;BME280;51226;47.504;19.074;2023-03-08T14:04:23;98942.72;;;12.85;36.69
64792;BME280;51226;47.504;19.074;2023-03-08T14:07:29;98947.97;;;12.93;36.98
64792;BME280;51226;47.504;19.074;2023-03-08T14:10:42;98941.78;;;12.72;38.02
64792;BME280;51226;47.504;19.074;2023-03-08T14:13:50;98948.78;;;12.75;38.54
64792;BME280;51226;47.504;19.074;2023-03-08T14:16:54;98949.56;;;12.58;39.15
64792;BME280;51226;47.504;19.074;2023-03-08T14:20:20;98947.75;;;12.54;39.47
64792;BME280;51226;47.504;19.074;2023-03-08T14:23:24;98945.97;;;12.47;39.99
64792;BME280;51226;47.504;19.074;2023-03-08T14:26:35;98932.91;;;12.47;40.13
64792;BME280;51226;47.504;19.074;2023-03-08T14:29:39;98939.03;;;12.52;40.27
64792;BME280;51226;47.504;19.074;2023-03-08T14:36:16;98939.09;;;12.58;40.88
64792;BME280;51226;47.504;19.074;2023-03-08T14:39:19;98936.41;;;12.51;41.64
64792;BME280;51226;47.504;19.074;2023-03-08T14:42:39;98957.34;;;12.51;41.97
64792;BME280;51226;47.504;19.074;2023-03-08T14:46:04;98954.72;;;12.51;42.32
64792;BME280;51226;47.504;19.074;2023-03-08T14:49:19;98957.19;;;12.32;43.04
64792;BME280;51226;47.504;19.074;2023-03-08T14:52:22;98945.72;;;12.13;43.90
64792;BME280;51226;47.504;19.074;2023-03-08T14:55:33;98972.75;;;12.17;43.83
64792;BME280;51226;47.504;19.074;2023-03-08T14:58:40;98956.00;;;11.92;44.67
64792;BME280;51226;47.504;19.074;2023-03-08T15:01:43;98957.63;;;11.85;45.26
64792;BME280;51226;47.504;19.074;2023-03-08T15:04:46;98947.06;;;11.74;46.12
64792;BME280;51226;47.504;19.074;2023-03-08T15:07:50;98934.00;;;11.74;46.52
64792;BME280;51226;47.504;19.074;2023-03-08T15:10:53;98941.91;;;11.80;46.65
64792;BME280;51226;47.504;19.074;2023-03-08T15:14:00;98923.66;;;11.83;46.82
64792;BME280;51226;47.504;19.074;2023-03-08T15:17:03;98914.03;;;11.79;47.12
64792;BME280;51226;47.504;19.074;2023-03-08T15:20:07;98899.19;;;11.75;47.59
64792;BME280;51226;47.504;19.074;2023-03-08T15:23:26;98900.06;;;11.76;47.69
64792;BME280;51226;47.504;19.074;2023-03-08T15:26:30;98900.84;;;11.65;48.31
64792;BME280;51226;47.504;19.074;2023-03-08T15:29:34;98893.00;;;11.65;48.57
64792;BME280;51226;47.504;19.074;2023-03-08T15:32:38;98891.28;;;11.66;49.16
64792;BME280;51226;47.504;19.074;2023-03-08T15:35:41;98893.91;;;11.64;49.84
64792;BME280;51226;47.504;19.074;2023-03-08T15:38:44;98898.38;;;11.82;49.99
64792;BME280;51226;47.504;19.074;2023-03-08T15:45:10;98883.47;;;11.71;50.98
64792;BME280;51226;47.504;19.074;2023-03-08T15:48:15;98866.97;;;11.72;51.79
64792;BME280;51226;47.504;19.074;2023-03-08T15:51:20;98865.19;;;11.71;51.99
64792;BME280;51226;47.504;19.074;2023-03-08T15:54:23;98856.41;;;11.61;52.75
64792;BME280;51226;47.504;19.074;2023-03-08T15:57:26;98844.25;;;11.61;53.21
64792;BME280;51226;47.504;19.074;2023-03-08T16:00:29;98830.34;;;11.67;53.23
64792;BME280;51226;47.504;19.074;2023-03-08T16:03:32;98829.50;;;11.66;53.58
64792;BME280;51226;47.504;19.074;2023-03-08T16:06:36;98837.31;;;11.65;54.07
64792;BME280;51226;47.504;19.074;2023-03-08T16:09:39;98838.16;;;11.62;54.72
64792;BME280;51226;47.504;19.074;2023-03-08T16:12:42;98838.19;;;11.67;54.78
64792;BME280;51226;47.504;19.074;2023-03-08T16:15:45;98826.78;;;11.57;55.33
64792;BME280;51226;47.504;19.074;2023-03-08T16:18:48;98826.81;;;11.60;55.51
64792;BME280;51226;47.504;19.074;2023-03-08T16:21:51;98834.59;;;11.56;56.59
64792;BME280;51226;47.504;19.074;2023-03-08T16:24:54;98839.81;;;11.54;56.53
64792;BME280;51226;47.504;19.074;2023-03-08T16:27:57;98832.97;;;11.67;56.98
64792;BME280;51226;47.504;19.074;2023-03-08T16:30:59;98833.06;;;11.78;56.64
64792;BME280;51226;47.504;19.074;2023-03-08T16:34:03;98833.78;;;11.58;57.36
64792;BME280;51226;47.504;19.074;2023-03-08T16:37:06;98825.06;;;11.56;57.68
64792;BME280;51226;47.504;19.074;2023-03-08T16:40:10;98813.69;;;11.51;58.08
64792;BME280;51226;47.504;19.074;2023-03-08T16:43:13;98816.28;;;11.49;58.53
64792;BME280;51226;47.504;19.074;2023-03-08T16:46:19;98826.75;;;11.54;58.41
64792;BME280;51226;47.504;19.074;2023-03-08T16:49:23;98826.94;;;11.77;58.07
64792;BME280;51226;47.504;19.074;2023-03-08T16:52:30;98815.44;;;11.54;58.62
64792;BME280;51226;47.504;19.074;2023-03-08T16:55:34;98809.38;;;11.59;59.15
64792;BME280;51226;47.504;19.074;2023-03-08T16:58:37;98819.00;;;11.63;59.22
64792;BME280;51226;47.504;19.074;2023-03-08T17:01:42;98812.81;;;11.52;59.85
64792;BME280;51226;47.504;19.074;2023-03-08T17:04:45;98806.72;;;11.50;59.89
64792;BME280;51226;47.504;19.074;2023-03-08T17:07:48;98806.69;;;11.48;60.52
64792;BME280;51226;47.504;19.074;2023-03-08T17:10:51;98807.56;;;11.44;60.87
64792;BME280;51226;47.504;19.074;2023-03-08T17:13:57;98805.72;;;11.37;61.30
64792;BME280;51226;47.504;19.074;2023-03-08T17:17:01;98813.63;;;11.43;61.40
64792;BME280;51226;47.504;19.074;2023-03-08T17:20:04;98808.41;;;11.45;61.35
64792;BME280;51226;47.504;19.074;2023-03-08T17:23:08;98796.28;;;11.50;61.60
64792;BME280;51226;47.504;19.074;2023-03-08T17:26:13;98797.91;;;11.39;62.04
64792;BME280;51226;47.504;19.074;2023-03-08T17:29:17;98797.94;;;11.42;61.98
64792;BME280;51226;47.504;19.074;2023-03-08T17:32:20;98800.44;;;11.29;62.50
64792;BME280;51226;47.504;19.074;2023-03-08T17:35:24;98794.31;;;11.27;63.23
64792;BME280;51226;47.504;19.074;2023-03-08T17:38:27;98808.22;;;11.25;63.50
64792;BME280;51226;47.504;19.074;2023-03-08T17:41:30;98811.63;;;11.16;63.85
64792;BME280;51226;47.504;19.074;2023-03-08T17:44:34;98811.63;;;11.19;64.22